Time;durP1;ratioP1;P1;durP2;ratioP2;P2;SDS_P1;SDS_P2;PMS_P1;PMS_P2;Temp;Humidity;BMP_temperature;BMP_pressure;BME280_temperature;BME280_humidity;BME280_pressure;Samples;Min_cycle;Max_cycle;Signal;HPM_P1;HPM_P2
2023/06/07 00:01:17;;;;;;;20.45;7.93;;;;;;;16.54;100.00;101850.63;5051758;28;20076;-64
2023/06/07 00:03:42;;;;;;;22.08;8.00;;;;;;;16.57;100.00;101850.59;5053330;28;20089;-64
2023/06/07 00:06:13;;;;;;;21.70;7.82;;;;;;;16.46;100.00;101850.66;5053480;28;20426;-64
2023/06/07 00:08:39;;;;;;;21.83;8.13;;;;;;;16.42;100.00;101856.03;5052742;28;20021;-64
2023/06/07 00:11:05;;;;;;;21.05;7.90;;;;;;;16.37;100.00;101848.91;5051994;28;20033;-64
2023/06/07 00:13:31;;;;;;;19.90;8.05;;;;;;;16.34;100.00;101854.25;5052913;28;20396;-64
2023/06/07 00:15:56;;;;;;;22.35;8.38;;;;;;;16.33;100.00;101848.94;5053294;28;20033;-64
2023/06/07 00:18:22;;;;;;;21.65;8.40;;;;;;;16.24;100.00;101844.53;5052828;28;20387;-64
2023/06/07 00:20:49;;;;;;;20.35;8.38;;;;;;;16.26;100.00;101850.72;5053298;28;20104;-64
2023/06/07 00:23:18;;;;;;;22.30;8.65;;;;;;;16.07;100.00;101859.69;5053107;28;20025;-64
2023/06/07 00:25:44;;;;;;;21.33;8.45;;;;;;;16.09;100.00;101858.81;5052721;28;20488;-64
2023/06/07 00:28:09;;;;;;;22.50;8.02;;;;;;;16.13;100.00;101857.00;5052862;28;20036;-64
2023/06/07 00:30:35;;;;;;;20.42;8.30;;;;;;;16.06;100.00;101857.91;5051563;28;20135;-64
2023/06/07 00:33:00;;;;;;;21.33;8.57;;;;;;;16.06;100.00;101857.91;5052623;28;20124;-65
2023/06/07 00:35:26;;;;;;;21.27;7.95;;;;;;;16.04;100.00;101863.25;5052462;28;20033;-64
2023/06/07 00:37:51;;;;;;;22.13;8.10;;;;;;;16.04;100.00;101861.44;5052131;28;20041;-64
2023/06/07 00:40:16;;;;;;;21.35;8.15;;;;;;;16.07;100.00;101855.22;5052177;28;20049;-65
2023/06/07 00:42:42;;;;;;;22.45;8.27;;;;;;;15.96;100.00;101852.59;5052760;28;20044;-64
2023/06/07 00:45:08;;;;;;;22.05;8.52;;;;;;;15.99;100.00;101851.72;5052332;28;20033;-65
2023/06/07 00:47:36;;;;;;;21.17;7.95;;;;;;;16.00;100.00;101851.72;5050525;28;20037;-64
2023/06/07 00:50:03;;;;;;;21.63;8.30;;;;;;;16.09;100.00;101849.88;5052434;28;20025;-64
2023/06/07 00:52:28;;;;;;;22.65;8.00;;;;;;;15.94;100.00;101843.69;5052266;28;20056;-64
2023/06/07 00:54:54;;;;;;;20.65;8.00;;;;;;;16.02;100.00;101847.25;5052457;28;20064;-65
2023/06/07 00:57:20;;;;;;;22.38;8.20;;;;;;;16.01;100.00;101855.25;5053392;28;20025;-64
2023/06/07 00:59:45;;;;;;;20.85;7.93;;;;;;;16.01;100.00;101847.25;5052411;28;20047;-64
2023/06/07 01:02:14;;;;;;;20.88;8.35;;;;;;;15.95;100.00;101842.81;5051635;28;20032;-65
2023/06/07 01:04:40;;;;;;;21.55;8.18;;;;;;;15.85;100.00;101838.41;5052246;28;20039;-64
2023/06/07 01:07:07;;;;;;;20.23;7.95;;;;;;;15.79;100.00;101844.63;5050371;28;20040;-65
2023/06/07 01:09:34;;;;;;;21.20;8.48;;;;;;;15.77;100.00;101846.38;5051982;28;20120;-64
2023/06/07 01:12:01;;;;;;;21.48;8.35;;;;;;;15.72;100.00;101847.28;5051719;28;20472;-64
2023/06/07 01:14:27;;;;;;;21.23;8.30;;;;;;;15.65;100.00;101847.28;5050453;28;20124;-64
2023/06/07 01:16:53;;;;;;;20.75;8.80;;;;;;;15.61;100.00;101857.91;5050655;28;20120;-64
2023/06/07 01:19:28;;;;;;;22.08;8.15;;;;;;;15.57;100.00;101854.38;5051327;28;20479;-64
2023/06/07 01:21:58;;;;;;;21.63;8.13;;;;;;;15.52;100.00;101850.81;5050158;28;20094;-64
2023/06/07 01:24:23;;;;;;;21.67;8.55;;;;;;;15.58;100.00;101847.28;5050761;28;20025;-64
2023/06/07 01:26:56;;;;;;;20.00;7.97;;;;;;;15.61;100.00;101840.19;5050700;28;20032;-64
2023/06/07 01:29:24;;;;;;;21.88;8.27;;;;;;;15.59;100.00;101836.59;5051473;28;20545;-64
2023/06/07 01:31:51;;;;;;;22.73;8.80;;;;;;;15.65;100.00;101831.31;5052101;28;20025;-64
2023/06/07 01:34:19;;;;;;;22.13;8.32;;;;;;;15.52;100.00;101837.50;5053052;28;20037;-66
2023/06/07 01:36:47;;;;;;;21.88;8.60;;;;;;;15.52;100.00;101840.16;5050890;28;20037;-64
2023/06/07 01:39:14;;;;;;;21.90;8.73;;;;;;;15.42;100.00;101833.97;5051035;28;20078;-64
2023/06/07 01:41:40;;;;;;;22.17;7.93;;;;;;;15.40;100.00;101842.84;5051603;28;20442;-64
2023/06/07 01:44:06;;;;;;;21.17;8.18;;;;;;;15.32;100.00;101827.75;5051825;28;20049;-64
2023/06/07 01:46:33;;;;;;;25.67;8.70;;;;;;;15.31;100.00;101831.28;5051043;28;20029;-65
2023/06/07 01:48:59;;;;;;;22.00;8.40;;;;;;;15.20;100.00;101826.84;5049551;28;20087;-64
2023/06/07 01:51:24;;;;;;;22.92;8.57;;;;;;;15.19;100.00;101825.06;5051757;28;20464;-64
2023/06/07 01:53:50;;;;;;;21.85;8.60;;;;;;;15.14;100.00;101833.06;5051507;28;20069;-64
2023/06/07 01:56:32;;;;;;;22.80;8.68;;;;;;;15.12;100.00;101826.84;5051695;28;20090;-64
2023/06/07 01:59:12;;;;;;;22.52;8.77;;;;;;;15.08;100.00;101828.59;5050105;28;20480;-65
2023/06/07 02:01:45;;;;;;;22.50;8.68;;;;;;;15.09;100.00;101821.53;5048696;28;20021;-64
2023/06/07 02:04:17;;;;;;;21.15;8.75;;;;;;;15.05;100.00;101827.72;5049654;28;20025;-64
2023/06/07 02:06:45;;;;;;;21.90;8.93;;;;;;;14.96;100.00;101826.81;5051564;28;20087;-64
2023/06/07 02:09:12;;;;;;;22.13;8.70;;;;;;;14.92;100.00;101822.38;5050669;28;20054;-64
2023/06/07 02:11:39;;;;;;;22.52;9.05;;;;;;;14.86;100.00;101830.34;5051388;28;20070;-65
2023/06/07 02:14:05;;;;;;;21.88;8.55;;;;;;;14.88;100.00;101825.03;5048506;28;20061;-64
2023/06/07 02:16:36;;;;;;;21.30;8.90;;;;;;;14.78;100.00;101821.44;5051373;28;20119;-64
2023/06/07 02:19:09;;;;;;;20.85;8.57;;;;;;;14.83;100.00;101833.00;5049925;28;20113;-65
2023/06/07 02:21:36;;;;;;;21.58;9.13;;;;;;;14.77;100.00;101833.88;5052135;28;20143;-64
2023/06/07 02:24:03;;;;;;;22.48;8.88;;;;;;;14.81;100.00;101826.81;5051820;28;20056;-65
2023/06/07 02:26:29;;;;;;;21.70;8.82;;;;;;;14.74;100.00;101833.88;5053747;28;20470;-64
2023/06/07 02:28:54;;;;;;;22.13;9.10;;;;;;;14.67;100.00;101826.75;5054650;28;20361;-64
2023/06/07 02:31:23;;;;;;;22.10;9.10;;;;;;;14.65;100.00;101828.53;5055022;28;20086;-64
2023/06/07 02:33:48;;;;;;;22.08;9.13;;;;;;;14.54;100.00;101832.88;5054423;28;20025;-65
2023/06/07 02:36:14;;;;;;;23.65;9.65;;;;;;;14.50;100.00;101833.75;5055131;28;20057;-64
2023/06/07 02:38:39;;;;;;;21.75;9.55;;;;;;;14.42;100.00;101833.72;5054623;28;20373;-64
2023/06/07 02:41:05;;;;;;;21.08;9.15;;;;;;;14.48;100.00;101844.41;5054734;28;20053;-64
2023/06/07 02:43:30;;;;;;;24.35;9.55;;;;;;;14.48;100.00;101831.09;5054709;28;20482;-64
2023/06/07 02:45:55;;;;;;;21.65;9.57;;;;;;;14.50;100.00;101834.63;5054061;28;20090;-64
2023/06/07 02:48:21;;;;;;;22.42;9.40;;;;;;;14.45;100.00;101836.41;5054261;28;20040;-64
2023/06/07 02:50:47;;;;;;;22.50;9.77;;;;;;;14.44;100.00;101823.97;5054727;28;20041;-64
2023/06/07 02:53:12;;;;;;;22.33;9.48;;;;;;;14.47;100.00;101826.66;5054715;28;20029;-63
2023/06/07 02:55:38;;;;;;;21.50;9.32;;;;;;;14.39;100.00;101825.75;5053335;28;20041;-64
2023/06/07 02:58:03;;;;;;;21.15;9.40;;;;;;;14.39;100.00;101821.31;5053533;28;20479;-64
2023/06/07 03:00:28;;;;;;;23.10;9.63;;;;;;;14.35;100.00;101826.59;5054503;28;20025;-64
2023/06/07 03:02:54;;;;;;;22.45;9.63;;;;;;;14.37;100.00;101833.72;5054617;28;20116;-64
2023/06/07 03:05:19;;;;;;;22.70;9.65;;;;;;;14.32;100.00;101835.47;5054302;28;20086;-68
2023/06/07 03:07:46;;;;;;;22.27;9.50;;;;;;;14.34;100.00;101843.44;5053697;28;20087;-68
2023/06/07 03:10:12;;;;;;;22.98;9.95;;;;;;;14.27;100.00;101832.78;5057312;28;20027;-68
2023/06/07 03:12:37;;;;;;;22.48;9.60;;;;;;;14.18;100.00;101839.81;5054468;28;20033;-68
2023/06/07 03:15:03;;;;;;;22.08;9.10;;;;;;;14.16;100.00;101837.16;5054064;28;20129;-65
2023/06/07 03:17:30;;;;;;;24.17;9.88;;;;;;;14.12;100.00;101833.59;5052646;28;20021;-67
2023/06/07 03:19:56;;;;;;;22.17;9.30;;;;;;;14.04;100.00;101835.31;5053710;28;20037;-68
2023/06/07 03:22:22;;;;;;;22.42;9.63;;;;;;;14.07;100.00;101838.00;5054042;28;20025;-65
2023/06/07 03:24:49;;;;;;;23.35;9.73;;;;;;;14.04;100.00;101834.44;5054128;28;20083;-65
2023/06/07 03:27:15;;;;;;;23.75;9.95;;;;;;;14.00;100.00;101838.84;5052316;28;20033;-68
2023/06/07 03:29:41;;;;;;;22.80;9.90;;;;;;;14.04;100.00;101843.28;5054087;28;20464;-69
2023/06/07 03:32:07;;;;;;;23.98;9.75;;;;;;;14.03;100.00;101840.63;5053718;28;20103;-68
2023/06/07 03:34:32;;;;;;;23.75;10.00;;;;;;;13.98;100.00;101839.69;5054099;28;20029;-68
2023/06/07 03:36:58;;;;;;;23.30;10.35;;;;;;;13.90;100.00;101843.19;5053942;28;20467;-69
2023/06/07 03:39:23;;;;;;;23.27;9.75;;;;;;;13.89;100.00;101846.75;5053458;28;20082;-68
2023/06/07 03:41:49;;;;;;;23.65;10.05;;;;;;;13.90;100.00;101847.63;5053633;28;20029;-68
2023/06/07 03:44:14;;;;;;;23.52;9.60;;;;;;;13.88;100.00;101831.69;5053678;28;20036;-66
2023/06/07 03:46:40;;;;;;;24.13;9.63;;;;;;;13.85;100.00;101836.97;5055441;28;20110;-66
2023/06/07 03:49:06;;;;;;;25.73;9.75;;;;;;;13.81;100.00;101837.84;5053103;28;20472;-68
2023/06/07 03:51:32;;;;;;;22.17;9.27;;;;;;;13.86;100.00;101841.44;5053710;28;20111;-68
2023/06/07 03:53:58;;;;;;;23.67;9.43;;;;;;;13.88;100.00;101838.78;5053652;28;20032;-69
2023/06/07 03:56:23;;;;;;;23.83;9.27;;;;;;;13.85;100.00;101844.94;5053492;28;20037;-68
2023/06/07 03:58:49;;;;;;;22.02;9.25;;;;;;;13.80;100.00;101840.47;5053681;28;20036;-67
2023/06/07 04:01:17;;;;;;;21.55;8.77;;;;;;;13.83;100.00;101837.84;5053593;28;20060;-65
2023/06/07 04:03:43;;;;;;;24.38;9.77;;;;;;;13.84;100.00;101843.16;5052182;28;20099;-68
2023/06/07 04:06:08;;;;;;;22.15;9.50;;;;;;;13.85;100.00;101844.94;5052208;28;20456;-66
2023/06/07 04:08:36;;;;;;;23.83;9.68;;;;;;;13.84;100.00;101848.47;5052572;28;20115;-67
2023/06/07 04:11:02;;;;;;;22.35;9.43;;;;;;;13.82;100.00;101849.34;5052888;28;20025;-66
2023/06/07 04:13:27;;;;;;;21.75;9.57;;;;;;;13.87;100.00;101844.97;5053391;28;20025;-65
2023/06/07 04:15:52;;;;;;;22.38;9.27;;;;;;;13.82;100.00;101849.34;5052869;28;20041;-65
2023/06/07 04:18:18;;;;;;;21.05;9.00;;;;;;;13.88;100.00;101847.63;5052170;28;20047;-68
2023/06/07 04:20:43;;;;;;;23.95;9.73;;;;;;;13.89;100.00;101849.41;5053242;28;20060;-69
2023/06/07 04:23:08;;;;;;;22.00;8.95;;;;;;;13.91;100.00;101844.97;5052971;28;20025;-68
2023/06/07 04:25:34;;;;;;;22.58;9.27;;;;;;;13.85;100.00;101844.94;5053445;28;20029;-69
2023/06/07 04:28:03;;;;;;;23.15;9.60;;;;;;;13.89;100.00;101851.16;5052523;28;20029;-69
2023/06/07 04:30:34;;;;;;;22.73;9.05;;;;;;;13.99;100.00;101847.69;5052887;28;20033;-68
2023/06/07 04:33:12;;;;;;;25.42;9.65;;;;;;;13.98;100.00;101843.25;5051658;28;20033;-68
2023/06/07 04:35:43;;;;;;;23.35;9.13;;;;;;;14.05;100.00;101841.50;5051928;28;20476;-69
2023/06/07 04:38:15;;;;;;;21.95;8.95;;;;;;;14.17;100.00;101852.22;5052540;28;20087;-68
2023/06/07 04:40:42;;;;;;;21.92;8.90;;;;;;;14.24;100.00;101848.72;5052462;28;20045;-69
2023/06/07 04:43:08;;;;;;;22.25;8.90;;;;;;;14.20;100.00;101846.94;5049560;28;20384;-68
2023/06/07 04:45:36;;;;;;;21.85;8.90;;;;;;;14.13;100.00;101842.47;5051467;28;20392;-69
2023/06/07 04:48:04;;;;;;;21.98;8.70;;;;;;;14.09;100.00;101852.16;5051848;28;20032;-68
2023/06/07 04:50:30;;;;;;;22.98;9.35;;;;;;;14.03;100.00;101859.25;5052286;28;20074;-68
2023/06/07 04:53:02;;;;;;;24.02;9.35;;;;;;;13.95;100.00;101860.06;5052469;28;20033;-69
2023/06/07 04:55:34;;;;;;;21.27;9.05;;;;;;;13.94;100.00;101857.41;5052479;28;20422;-67
2023/06/07 04:58:03;;;;;;;23.40;9.23;;;;;;;13.94;100.00;101850.31;5051956;28;20025;-68
2023/06/07 05:00:30;;;;;;;22.17;8.82;;;;;;;14.00;100.00;101841.50;5050409;28;20032;-68
2023/06/07 05:02:57;;;;;;;21.95;8.77;;;;;;;13.89;100.00;101852.06;5052191;28;20048;-69
2023/06/07 05:05:22;;;;;;;21.52;9.05;;;;;;;13.87;100.00;101848.50;5052031;28;20033;-69
2023/06/07 05:07:49;;;;;;;21.48;9.23;;;;;;;13.85;100.00;101844.03;5052154;28;20033;-69
2023/06/07 05:10:17;;;;;;;22.92;9.23;;;;;;;13.89;100.00;101853.81;5052327;28;20111;-69
2023/06/07 05:12:43;;;;;;;23.02;9.07;;;;;;;13.96;100.00;101858.28;5052254;28;20458;-69
2023/06/07 05:15:09;;;;;;;23.42;10.30;;;;;;;14.07;100.00;101855.72;5051737;28;20029;-68
2023/06/07 05:17:36;;;;;;;22.90;9.40;;;;;;;14.11;100.00;101854.84;5051942;28;20435;-69
2023/06/07 05:20:05;;;;;;;25.10;9.43;;;;;;;14.10;100.00;101855.75;5051834;28;20037;-68
2023/06/07 05:22:31;;;;;;;23.05;9.32;;;;;;;14.14;100.00;101862.84;5052337;28;20029;-69
2023/06/07 05:24:56;;;;;;;23.27;9.10;;;;;;;14.10;100.00;101861.94;5054695;28;20035;-64
2023/06/07 05:27:21;;;;;;;23.05;9.45;;;;;;;14.15;100.00;101864.59;5051643;28;20037;-64
2023/06/07 05:29:47;;;;;;;23.85;9.10;;;;;;;14.17;100.00;101862.88;5050512;28;20198;-63
2023/06/07 05:32:12;;;;;;;22.75;9.60;;;;;;;14.24;100.00;101863.78;5051665;28;20033;-63
2023/06/07 05:34:38;;;;;;;22.63;8.80;;;;;;;14.35;100.00;101867.38;5052443;28;20071;-63
2023/06/07 05:37:05;;;;;;;23.00;9.35;;;;;;;14.33;100.00;101863.84;5053924;28;20065;-62
2023/06/07 05:39:30;;;;;;;22.73;9.10;;;;;;;14.35;100.00;101861.19;5051477;28;20032;-65
2023/06/07 05:41:55;;;;;;;22.92;9.30;;;;;;;14.30;100.00;101869.16;5051418;28;20057;-63
2023/06/07 05:44:21;;;;;;;22.95;9.15;;;;;;;14.32;100.00;101866.50;5052115;28;20094;-62
2023/06/07 05:46:46;;;;;;;22.30;8.95;;;;;;;14.31;100.00;101870.91;5051321;28;20382;-65
2023/06/07 05:49:11;;;;;;;23.10;9.73;;;;;;;14.25;100.00;101870.88;5051299;28;20112;-64
2023/06/07 05:51:37;;;;;;;23.67;9.55;;;;;;;14.28;100.00;101870.88;5051568;28;20487;-65
2023/06/07 05:54:02;;;;;;;23.95;9.93;;;;;;;14.38;100.00;101879.81;5051859;28;20468;-64
2023/06/07 05:56:28;;;;;;;22.08;9.57;;;;;;;14.45;100.00;101881.63;5051211;28;20035;-64
2023/06/07 05:58:53;;;;;;;26.10;9.85;;;;;;;14.49;100.00;101878.09;5053133;28;20037;-63
2023/06/07 06:01:19;;;;;;;22.52;9.60;;;;;;;14.51;100.00;101873.66;5055259;28;20029;-64
2023/06/07 06:03:44;;;;;;;22.52;9.40;;;;;;;14.54;100.00;101873.69;5055211;28;20021;-65
2023/06/07 06:06:17;;;;;;;23.05;9.32;;;;;;;14.58;100.00;101885.25;5055724;28;20385;-66
2023/06/07 06:08:43;;;;;;;23.10;9.70;;;;;;;14.59;100.00;101885.25;5052511;28;20032;-64
2023/06/07 06:11:13;;;;;;;22.55;9.77;;;;;;;14.54;100.00;101889.63;5057887;28;20033;-65
2023/06/07 06:13:39;;;;;;;23.55;9.85;;;;;;;14.55;100.00;101898.53;5052431;28;20100;-66
2023/06/07 06:16:05;;;;;;;23.73;9.50;;;;;;;14.52;100.00;101887.84;5055233;28;20468;-66
2023/06/07 06:18:30;;;;;;;23.90;9.43;;;;;;;14.63;100.00;101894.16;5054757;28;20061;-65
2023/06/07 06:20:56;;;;;;;21.90;9.30;;;;;;;14.73;100.00;101887.97;5055368;28;20056;-66
2023/06/07 06:23:22;;;;;;;24.80;9.68;;;;;;;14.79;100.00;101895.09;5055145;28;20028;-66
2023/06/07 06:25:47;;;;;;;21.80;9.23;;;;;;;14.82;100.00;101889.78;5055045;28;20029;-65
2023/06/07 06:28:13;;;;;;;22.35;9.23;;;;;;;14.89;100.00;101893.34;5054752;28;20029;-63
2023/06/07 06:30:38;;;;;;;24.45;9.77;;;;;;;14.90;100.00;101892.47;5054814;28;20078;-62
2023/06/07 06:33:03;;;;;;;22.98;9.20;;;;;;;14.97;100.00;101895.16;5054911;28;20043;-68
2023/06/07 06:35:32;;;;;;;22.85;8.93;;;;;;;15.10;100.00;101900.50;5054813;28;20125;-65
2023/06/07 06:37:58;;;;;;;22.98;8.95;;;;;;;15.15;100.00;101898.75;5054112;28;20503;-64
2023/06/07 06:40:23;;;;;;;22.40;8.93;;;;;;;15.36;100.00;101903.22;5054430;28;20045;-63
2023/06/07 06:42:49;;;;;;;21.48;8.70;;;;;;;15.49;100.00;101904.13;5054723;28;20028;-65
2023/06/07 06:45:15;;;;;;;21.88;8.98;;;;;;;15.48;100.00;101907.69;5054885;28;20052;-63
2023/06/07 06:47:41;;;;;;;24.25;9.63;;;;;;;15.49;100.00;101907.69;5053933;28;20029;-66
2023/06/07 06:50:11;;;;;;;22.73;9.15;;;;;;;15.47;100.00;101908.56;5054274;28;20063;-66
2023/06/07 06:52:41;;;;;;;23.13;9.00;;;;;;;15.35;100.00;101912.13;5054416;28;20061;-64
2023/06/07 06:55:07;;;;;;;25.70;9.45;;;;;;;15.40;100.00;101920.09;5054230;28;20044;-65
2023/06/07 06:57:33;;;;;;;22.02;8.77;;;;;;;15.46;100.00;101909.44;5054240;28;20029;-63
2023/06/07 06:59:59;;;;;;;22.33;9.30;;;;;;;15.45;100.00;101913.00;5055284;28;20071;-63
2023/06/07 07:02:25;;;;;;;23.52;8.80;;;;;;;15.51;100.00;101915.69;5054252;28;20078;-62
2023/06/07 07:04:50;;;;;;;22.27;8.80;;;;;;;15.65;100.00;101907.69;5054487;28;20032;-64
2023/06/07 07:07:16;;;;;;;24.83;8.73;;;;;;;15.67;100.00;101912.13;5053822;28;20431;-66
2023/06/07 07:09:41;;;;;;;20.75;8.20;;;;;;;15.84;100.00;101914.84;5053721;28;20025;-65
2023/06/07 07:12:07;;;;;;;22.85;8.50;;;;;;;15.92;100.00;101920.16;5053971;28;20033;-64
2023/06/07 07:14:33;;;;;;;22.45;8.45;;;;;;;16.13;100.00;101929.00;5054186;28;20468;-64
2023/06/07 07:16:58;;;;;;;22.98;9.02;;;;;;;16.25;100.00;101918.34;5052718;28;20037;-63
2023/06/07 07:19:23;;;;;;;22.25;8.80;;;;;;;16.39;100.00;101919.16;5053222;28;20392;-67
2023/06/07 07:21:49;;;;;;;21.73;8.20;;;;;;;16.53;100.00;101923.59;5042502;28;20112;-63
2023/06/07 07:24:14;;;;;;;22.17;9.23;;;;;;;16.65;100.00;101928.00;5050547;28;20021;-63
2023/06/07 07:26:40;;;;;;;21.40;8.90;;;;;;;16.88;100.00;101925.25;5053533;28;20105;-62
2023/06/07 07:29:05;;;;;;;21.90;8.52;;;;;;;16.97;97.93;101925.22;5053828;28;20422;-64
2023/06/07 07:31:33;;;;;;;22.50;9.07;;;;;;;17.07;94.36;101928.72;5053571;28;20068;-63
2023/06/07 07:33:59;;;;;;;22.58;8.82;;;;;;;16.99;91.93;101934.09;5051050;28;20120;-65
2023/06/07 07:36:25;;;;;;;22.55;8.93;;;;;;;17.10;93.35;101933.16;5056599;28;20426;-69
2023/06/07 07:38:51;;;;;;;22.73;8.60;;;;;;;17.08;89.47;101933.16;5053925;28;20025;-71
2023/06/07 07:41:17;;;;;;;20.92;8.13;;;;;;;17.16;89.59;101922.44;5052997;28;20045;-63
2023/06/07 07:43:42;;;;;;;24.40;8.63;;;;;;;17.26;89.27;101921.50;5053023;28;20472;-64
2023/06/07 07:46:08;;;;;;;23.55;8.75;;;;;;;17.29;89.82;101925.94;5053942;28;20376;-64
2023/06/07 07:48:34;;;;;;;23.35;8.70;;;;;;;17.33;88.69;101933.91;5053160;28;20021;-64
2023/06/07 07:50:59;;;;;;;21.27;8.30;;;;;;;17.50;88.07;101938.25;5053060;28;20452;-64
2023/06/07 07:53:25;;;;;;;21.30;8.10;;;;;;;17.40;86.04;101932.97;5053717;28;20037;-67
2023/06/07 07:55:51;;;;;;;21.67;8.13;;;;;;;17.36;86.71;101933.88;5052947;28;20494;-63
2023/06/07 07:58:16;;;;;;;23.52;8.40;;;;;;;17.32;85.75;101941.94;5053697;28;20070;-63
2023/06/07 08:00:42;;;;;;;22.58;8.60;;;;;;;17.42;87.98;101943.66;5054185;28;20078;-64
2023/06/07 08:03:08;;;;;;;23.65;8.40;;;;;;;17.66;85.41;101947.03;5053881;28;20040;-63
2023/06/07 08:05:33;;;;;;;23.98;8.45;;;;;;;17.83;84.29;101944.25;5054040;28;20025;-65
2023/06/07 08:07:58;;;;;;;21.38;7.82;;;;;;;18.11;80.88;101940.44;5053934;28;20031;-63
2023/06/07 08:10:24;;;;;;;26.23;8.23;;;;;;;18.23;81.50;101944.78;5052563;28;20059;-64
2023/06/07 08:12:50;;;;;;;21.67;8.05;;;;;;;18.32;78.40;101925.06;5049685;28;20043;-63
2023/06/07 08:15:16;;;;;;;24.15;8.27;;;;;;;18.60;77.48;101938.13;5052640;28;20476;-71
2023/06/07 08:17:41;;;;;;;22.63;8.02;;;;;;;19.01;75.60;101936.75;5053031;28;20037;-67
2023/06/07 08:20:08;;;;;;;23.70;8.27;;;;;;;19.28;72.85;101942.63;5053254;28;20527;-72
2023/06/07 08:22:34;;;;;;;21.85;7.90;;;;;;;19.41;71.37;101937.97;5050873;28;20122;-72
2023/06/07 08:25:00;;;;;;;22.08;8.15;;;;;;;19.50;69.28;101927.13;5052462;28;20120;-73
2023/06/07 08:27:25;;;;;;;21.20;7.63;;;;;;;19.64;70.06;101938.50;5052707;28;20040;-70
2023/06/07 08:29:50;;;;;;;22.48;8.55;;;;;;;19.58;71.00;101929.66;5051612;28;20037;-70
2023/06/07 08:32:16;;;;;;;21.98;8.23;;;;;;;19.83;70.37;101935.53;5052034;28;20028;-70
2023/06/07 08:34:41;;;;;;;21.98;7.72;;;;;;;20.08;68.08;101930.66;5052331;28;20035;-72
2023/06/07 08:37:07;;;;;;;23.25;8.35;;;;;;;20.00;65.54;101927.19;5052565;28;20116;-71
2023/06/07 08:39:33;;;;;;;21.92;7.70;;;;;;;19.84;68.00;101923.91;5052914;28;20025;-72
2023/06/07 08:41:58;;;;;;;22.13;7.70;;;;;;;19.85;67.37;101929.25;5051682;28;20399;-70
2023/06/07 08:44:24;;;;;;;22.90;8.35;;;;;;;19.82;67.98;101920.38;5051373;28;20532;-68
2023/06/07 08:46:51;;;;;;;20.70;8.00;;;;;;;19.96;67.50;101926.34;5052139;28;20041;-65
2023/06/07 08:49:16;;;;;;;22.80;8.07;;;;;;;20.22;68.87;101921.44;5052317;28;20033;-71
2023/06/07 08:51:42;;;;;;;21.40;7.85;;;;;;;20.37;67.36;101931.88;5052101;28;20423;-73
2023/06/07 08:54:12;;;;;;;22.33;8.30;;;;;;;20.33;65.70;101924.81;5052281;28;20064;-67
2023/06/07 08:56:38;;;;;;;21.13;8.15;;;;;;;20.49;66.17;101926.28;5051969;28;20033;-69
2023/06/07 08:59:04;;;;;;;22.33;7.95;;;;;;;20.65;65.14;101932.22;5054848;28;20040;-74
2023/06/07 09:01:34;;;;;;;22.55;8.00;;;;;;;20.78;65.67;101918.53;5049972;28;20052;-68
2023/06/07 09:04:00;;;;;;;21.63;8.20;;;;;;;20.83;65.20;101930.97;5052110;28;20063;-69
2023/06/07 09:06:26;;;;;;;24.58;8.30;;;;;;;20.98;65.16;101924.38;5051947;28;20441;-70
2023/06/07 09:08:52;;;;;;;21.08;8.02;;;;;;;21.22;62.95;101922.06;5052224;28;20028;-66
2023/06/07 09:11:17;;;;;;;23.08;7.93;;;;;;;21.04;61.82;101926.03;5051566;28;20124;-71
2023/06/07 09:13:43;;;;;;;22.55;8.70;;;;;;;21.11;62.76;101930.34;5051891;28;20024;-68
2023/06/07 09:16:12;;;;;;;22.42;7.93;;;;;;;21.43;62.34;101926.03;5052055;28;20455;-72
2023/06/07 09:18:53;;;;;;;21.98;8.00;;;;;;;21.83;60.26;101937.63;5051856;28;20040;-70
2023/06/07 09:21:21;;;;;;;22.23;8.00;;;;;;;21.91;58.98;101939.22;5053013;28;20061;-68
2023/06/07 09:23:48;;;;;;;20.77;7.28;;;;;;;22.16;58.72;101933.19;5052362;28;20464;-68
2023/06/07 09:26:14;;;;;;;22.40;7.72;;;;;;;22.24;57.78;101925.78;5051912;28;20025;-68
2023/06/07 09:28:40;;;;;;;20.30;7.68;;;;;;;22.40;56.99;101925.41;5051223;28;20078;-69
2023/06/07 09:31:06;;;;;;;21.95;7.35;;;;;;;22.52;56.90;101926.88;5051353;28;20033;-70
2023/06/07 09:33:35;;;;;;;22.35;7.82;;;;;;;22.51;56.31;101935.88;5051146;28;20029;-69
2023/06/07 09:36:17;;;;;;;20.38;7.38;;;;;;;22.57;55.77;101932.97;5051734;28;20033;-70
2023/06/07 09:38:43;;;;;;;24.00;7.80;;;;;;;22.50;56.28;101928.69;5050662;28;20021;-71
2023/06/07 09:41:12;;;;;;;22.02;7.65;;;;;;;22.49;55.96;101929.66;5050594;28;20056;-71
2023/06/07 09:43:51;;;;;;;22.27;8.10;;;;;;;22.50;56.89;101926.91;5051633;28;20055;-70
2023/06/07 09:46:20;;;;;;;20.80;8.02;;;;;;;22.31;56.66;101915.75;5050150;28;20075;-69
2023/06/07 09:48:52;;;;;;;21.92;7.75;;;;;;;22.26;56.43;101920.34;5051434;28;20051;-71
2023/06/07 09:51:18;;;;;;;;;;;;;;;22.80;56.23;101924.22;5051531;28;20025;-73
2023/06/07 09:53:52;;;;;;;21.85;7.93;;;;;;;22.91;55.07;101919.41;5051352;28;19917;-68
2023/06/07 09:56:18;;;;;;;20.50;7.40;;;;;;;23.26;54.59;101919.28;5051878;28;20422;-73
2023/06/07 09:58:49;;;;;;;21.17;7.38;;;;;;;23.63;53.62;101918.06;5050894;28;20116;-73
2023/06/07 10:01:15;;;;;;;24.00;7.20;;;;;;;23.88;52.02;101919.94;5050909;28;20076;-66
2023/06/07 10:03:47;;;;;;;22.38;7.60;;;;;;;23.57;51.68;101931.75;5051283;28;20048;-65
2023/06/07 10:06:16;;;;;;;22.98;7.75;;;;;;;23.27;52.25;101934.50;5051205;28;20396;-66
2023/06/07 10:08:43;;;;;;;23.23;8.18;;;;;;;23.06;52.29;101919.88;5051249;28;20472;-65
2023/06/07 10:11:09;;;;;;;22.10;7.93;;;;;;;22.87;53.56;101919.53;5050727;28;20025;-65
2023/06/07 10:13:37;;;;;;;23.98;8.50;;;;;;;22.81;54.06;101915.22;5051412;28;20035;-63
2023/06/07 10:16:08;;;;;;;21.83;8.23;;;;;;;22.82;54.02;101919.69;5050871;28;20036;-68
2023/06/07 10:18:34;;;;;;;22.98;8.38;;;;;;;22.83;53.63;101921.44;5045358;28;20381;-68
2023/06/07 10:21:08;;;;;;;22.38;8.20;;;;;;;22.81;54.10;101918.78;5049967;28;20498;-66
2023/06/07 10:23:50;;;;;;;22.88;8.43;;;;;;;23.23;53.66;101919.38;5049024;28;20043;-66
2023/06/07 10:26:21;;;;;;;22.50;8.15;;;;;;;24.41;52.29;101919.00;5049567;28;20035;-63
2023/06/07 10:28:52;;;;;;;21.75;7.60;;;;;;;24.98;49.84;101923.13;5051041;28;20379;-63
2023/06/07 10:31:20;;;;;;;19.67;7.38;;;;;;;25.21;48.66;101927.63;5051242;28;20021;-63
2023/06/07 10:33:50;;;;;;;21.15;7.15;;;;;;;24.94;48.31;101918.78;5050970;28;20036;-63
2023/06/07 10:36:19;;;;;;;23.50;7.70;;;;;;;24.60;49.41;101914.69;5049709;28;20033;-63
2023/06/07 10:38:44;;;;;;;24.63;7.80;;;;;;;24.40;50.29;101919.91;5050843;28;20372;-64
2023/06/07 10:41:10;;;;;;;22.63;8.18;;;;;;;24.13;49.05;101917.25;5050500;28;20049;-63
2023/06/07 10:43:37;;;;;;;24.27;7.95;;;;;;;23.84;50.52;101919.16;5051196;28;20065;-62
2023/06/07 10:46:31;;;;;;;20.13;7.65;;;;;;;23.71;50.69;101918.69;5054499;28;20375;-64
2023/06/07 10:48:57;;;;;;;20.77;7.82;;;;;;;23.22;52.95;101920.31;5040396;28;20052;-63
2023/06/07 10:51:41;;;;;;;21.52;7.60;;;;;;;23.14;54.55;101920.56;5055495;28;20025;-64
2023/06/07 10:54:07;;;;;;;23.17;8.50;;;;;;;23.00;53.65;101914.66;5052873;28;20029;-65
2023/06/07 10:56:35;;;;;;;23.15;8.73;;;;;;;22.93;54.36;101919.34;5053210;28;20033;-64
2023/06/07 10:59:12;;;;;;;22.02;8.30;;;;;;;22.88;54.60;101915.94;5051759;28;20166;-64
2023/06/07 11:01:38;;;;;;;21.77;8.38;;;;;;;22.90;54.44;101904.16;5051726;28;20118;-63
2023/06/07 11:04:04;;;;;;;22.92;8.85;;;;;;;22.87;53.64;101904.25;5054358;28;20055;-62
2023/06/07 11:06:32;;;;;;;21.48;8.23;;;;;;;22.76;54.16;101904.59;5053946;28;20021;-61
2023/06/07 11:09:17;;;;;;;21.83;8.32;;;;;;;22.63;55.02;101906.75;5054476;28;20116;-62
2023/06/07 11:11:43;;;;;;;23.15;8.68;;;;;;;22.21;55.58;101909.72;5054010;28;20029;-64